Time;durP1;ratioP1;P1;durP2;ratioP2;P2;SDS_P1;SDS_P2;PMS_P1;PMS_P2;Temp;Humidity;BMP_temperature;BMP_pressure;BME280_temperature;BME280_humidity;BME280_pressure;Samples;Min_cycle;Max_cycle;Signal;HPM_P1;HPM_P2
2021/03/12 00:00:22;;;;;;;9.10;4.95;;;;;;;0.27;44.67;101339.27;1758603;81;21183;-50
2021/03/12 00:02:50;;;;;;;12.53;4.12;;;;;;;0.28;44.74;101343.20;1701074;83;21203;-69
2021/03/12 00:05:17;;;;;;;12.70;5.37;;;;;;;0.34;44.77;101337.44;1720849;83;21161;-68
2021/03/12 00:07:45;;;;;;;12.35;4.87;;;;;;;0.44;44.61;101338.73;1705947;83;21215;-69
2021/03/12 00:10:17;;;;;;;9.50;4.70;;;;;;;0.49;44.56;101327.27;1727882;83;21185;-50
2021/03/12 00:12:44;;;;;;;8.93;4.67;;;;;;;0.48;44.56;101325.09;1745027;81;21174;-50
2021/03/12 00:15:16;;;;;;;9.18;5.10;;;;;;;0.46;44.65;101326.73;1736817;81;21156;-50
2021/03/12 00:17:44;;;;;;;9.63;4.80;;;;;;;0.39;44.89;101322.99;1726386;83;21211;-51
2021/03/12 00:20:16;;;;;;;9.35;4.37;;;;;;;0.38;45.02;101316.04;1699732;83;21158;-50
2021/03/12 00:22:45;;;;;;;8.78;3.90;;;;;;;0.48;44.98;101314.73;1710057;82;21333;-68
2021/03/12 00:25:21;;;;;;;7.05;4.42;;;;;;;0.51;45.02;101310.08;1720063;82;21154;-69
2021/03/12 00:27:48;;;;;;;11.10;5.15;;;;;;;0.53;44.97;101307.15;1712117;82;21553;-65
2021/03/12 00:30:19;;;;;;;11.30;5.23;;;;;;;0.50;45.15;101305.72;1712389;82;21165;-66
2021/03/12 00:32:47;;;;;;;12.13;4.42;;;;;;;0.48;45.23;101308.25;1712415;82;21780;-48
2021/03/12 00:35:16;;;;;;;9.63;4.53;;;;;;;0.48;45.24;101303.47;1680369;84;21324;-66
2021/03/12 00:37:43;;;;;;;9.65;4.30;;;;;;;0.52;45.32;101292.03;1688175;84;21146;-67
2021/03/12 00:40:17;;;;;;;11.05;5.10;;;;;;;0.45;45.44;101273.15;1706481;83;21411;-67
2021/03/12 00:42:45;;;;;;;11.08;4.78;;;;;;;0.41;45.69;101272.53;1694790;82;21184;-48
2021/03/12 00:45:15;;;;;;;11.12;5.00;;;;;;;0.40;45.77;101274.26;1722763;82;21192;-66
2021/03/12 00:47:45;;;;;;;11.60;5.28;;;;;;;0.38;45.79;101269.42;1744001;81;21173;-49
2021/03/12 00:50:17;;;;;;;8.15;4.50;;;;;;;0.35;45.91;101270.58;1692297;83;21185;-66
2021/03/12 00:52:45;;;;;;;12.20;4.60;;;;;;;0.42;45.98;101271.33;1738451;81;21147;-66
2021/03/12 00:59:33;;;;;;;9.65;4.10;;;;;;;0.37;46.62;101256.38;1826745;77;22136;-48
2021/03/12 01:02:01;;;;;;;8.55;4.20;;;;;;;0.34;46.50;101264.02;1761810;81;21176;-48
2021/03/12 01:04:29;;;;;;;10.00;4.53;;;;;;;0.30;46.52;101264.31;1761856;81;21151;-56
2021/03/12 01:06:59;;;;;;;8.00;3.95;;;;;;;0.31;46.51;101255.72;1757777;81;21134;-49
2021/03/12 01:09:27;;;;;;;10.08;4.33;;;;;;;0.34;46.65;101259.74;1735093;81;21154;-49
2021/03/12 01:11:55;;;;;;;10.50;4.70;;;;;;;0.34;46.59;101254.95;1731658;82;21150;-49
2021/03/12 01:14:23;;;;;;;10.08;3.83;;;;;;;0.31;46.71;101251.84;1731653;83;21186;-49
2021/03/12 01:16:52;;;;;;;11.68;4.60;;;;;;;0.27;46.81;101246.91;1743962;81;21142;-67
2021/03/12 01:19:20;;;;;;;9.55;4.65;;;;;;;0.29;46.85;101252.17;1732846;81;21454;-49
2021/03/12 01:21:50;;;;;;;9.58;4.08;;;;;;;0.32;46.81;101248.82;1731947;82;21163;-67
2021/03/12 01:24:18;;;;;;;8.00;4.67;;;;;;;0.27;47.04;101239.14;1735060;81;21135;-49
2021/03/12 01:26:48;;;;;;;10.15;4.67;;;;;;;0.26;47.24;101232.19;1750537;81;21284;-67
2021/03/12 01:29:16;;;;;;;7.40;4.17;;;;;;;0.28;47.19;101228.39;1743155;81;21146;-66
2021/03/12 01:31:45;;;;;;;10.08;5.05;;;;;;;0.27;47.24;101227.48;1761451;81;21751;-67
2021/03/12 01:34:15;;;;;;;9.55;4.37;;;;;;;0.25;47.36;101221.36;1759462;81;21138;-49
2021/03/12 01:36:43;;;;;;;10.28;4.55;;;;;;;0.24;47.39;101227.36;1746232;81;21118;-49
2021/03/12 01:39:11;;;;;;;7.90;4.17;;;;;;;0.24;47.47;101222.17;1761480;81;21118;-58
2021/03/12 01:41:40;;;;;;;12.47;4.50;;;;;;;0.23;47.58;101220.41;1731644;83;21337;-52
2021/03/12 01:44:10;;;;;;;9.88;5.28;;;;;;;0.33;47.52;101214.33;1749236;81;21146;-49
2021/03/12 01:46:38;;;;;;;8.30;4.65;;;;;;;0.37;47.32;101204.19;1757773;81;21502;-67
2021/03/12 01:49:07;;;;;;;8.87;4.17;;;;;;;0.37;47.36;101209.38;1747644;81;21162;-50
2021/03/12 01:51:35;;;;;;;8.95;4.30;;;;;;;0.40;47.43;101200.83;1733008;81;21159;-49
2021/03/12 01:54:04;;;;;;;7.90;4.60;;;;;;;0.43;47.47;101199.67;1736923;81;21158;-50
2021/03/12 01:56:31;;;;;;;9.80;4.72;;;;;;;0.41;47.68;101185.38;1761987;81;21189;-66
2021/03/12 01:59:01;;;;;;;7.00;4.10;;;;;;;0.42;47.58;101186.24;1760999;81;21273;-67
2021/03/12 02:01:36;;;;;;;7.83;3.90;;;;;;;0.42;47.68;101184.55;1757378;81;21408;-49
2021/03/12 02:04:06;;;;;;;9.00;4.00;;;;;;;0.43;47.82;101181.14;1751436;81;21142;-49
2021/03/12 02:06:42;;;;;;;14.03;7.53;;;;;;;0.46;47.83;101171.70;1807707;77;28513;-48
2021/03/12 02:09:10;;;;;;;9.50;5.55;;;;;;;0.46;47.85;101179.08;1761135;81;21135;-66
2021/03/12 02:11:39;;;;;;;9.03;4.95;;;;;;;0.52;48.20;101180.63;1705724;82;21560;-48
2021/03/12 02:14:15;;;;;;;9.55;5.28;;;;;;;0.53;47.99;101175.93;1695649;83;21146;-48
2021/03/12 02:24:46;;;;;;;9.75;4.92;;;;;;;0.43;48.69;101153.05;1834835;77;22175;-66
2021/03/12 02:27:19;;;;;;;8.10;4.50;;;;;;;0.42;48.69;101159.05;1773281;80;21633;-67
2021/03/12 02:29:52;;;;;;;9.80;5.00;;;;;;;0.43;48.70;101162.11;1761859;80;21130;-50
2021/03/12 02:32:32;;;;;;;8.75;4.53;;;;;;;0.42;48.85;101156.45;1738512;81;21165;-67
2021/03/12 02:35:03;;;;;;;7.58;4.33;;;;;;;0.48;48.80;101153.22;1728439;83;21157;-50
2021/03/12 02:37:31;;;;;;;;;;;;;;;0.51;48.81;101151.66;1739917;80;21163;-68
2021/03/12 02:44:25;;;;;;;13.72;7.55;;;;;;;0.56;48.78;101143.67;1837287;77;27983;-48
2021/03/12 02:47:05;;;;;;;10.82;6.03;;;;;;;0.53;48.91;101146.53;1782577;79;21119;-48
2021/03/12 02:49:33;;;;;;;9.93;5.45;;;;;;;0.51;49.21;101141.30;1784550;80;21248;-51
2021/03/12 02:52:01;;;;;;;10.93;5.30;;;;;;;0.58;49.27;101135.55;1761876;81;21154;-51
2021/03/12 02:54:29;;;;;;;11.12;5.78;;;;;;;0.61;49.38;101134.78;1761942;81;21111;-68
2021/03/12 02:56:57;;;;;;;11.35;5.78;;;;;;;0.66;49.68;101138.45;1770735;80;21146;-69
2021/03/12 02:59:25;;;;;;;10.93;5.58;;;;;;;0.70;49.79;101141.63;1780019;80;21135;-51
2021/03/12 03:01:58;;;;;;;11.90;6.22;;;;;;;0.79;49.78;101138.52;1790456;80;21224;-68
2021/03/12 03:04:28;;;;;;;9.40;5.10;;;;;;;0.88;49.83;101140.61;1780273;80;21158;-68
2021/03/12 03:06:57;;;;;;;8.07;4.50;;;;;;;0.88;50.01;101136.73;1784731;80;21265;-51
2021/03/12 03:09:27;;;;;;;10.45;5.75;;;;;;;0.95;50.27;101141.73;1792230;80;21092;-51
2021/03/12 03:11:56;;;;;;;8.10;4.90;;;;;;;1.03;50.43;101141.20;1793151;80;21172;-50
2021/03/12 03:14:23;;;;;;;13.03;5.37;;;;;;;1.19;50.43;101141.80;1793174;80;21107;-68
2021/03/12 03:16:51;;;;;;;10.58;5.60;;;;;;;1.33;50.17;101139.29;1791229;80;21139;-50
2021/03/12 03:19:20;;;;;;;11.18;5.42;;;;;;;1.32;50.24;101127.18;1793428;80;21174;-51
2021/03/12 03:21:48;;;;;;;10.95;5.42;;;;;;;1.33;50.37;101125.02;1793016;79;21188;-51
2021/03/12 03:24:16;;;;;;;10.95;5.35;;;;;;;1.36;50.38;101114.30;1777302;80;21142;-51
2021/03/12 03:26:43;;;;;;;12.18;6.05;;;;;;;1.50;50.09;101115.70;1748401;81;21150;-51
2021/03/12 03:29:12;;;;;;;6.95;4.17;;;;;;;1.54;49.96;101115.42;1761809;81;21171;-68
2021/03/12 03:31:40;;;;;;;11.40;5.55;;;;;;;1.55;50.00;101111.56;1761902;80;21168;-51
2021/03/12 03:34:08;;;;;;;10.68;5.53;;;;;;;1.51;50.10;101111.41;1745231;80;21151;-68
2021/03/12 03:36:36;;;;;;;10.15;5.42;;;;;;;1.50;50.28;101110.94;1792354;80;21095;-68
2021/03/12 03:39:07;;;;;;;10.70;5.28;;;;;;;1.45;50.56;101109.05;1793042;80;21155;-51
2021/03/12 03:41:42;;;;;;;11.48;5.28;;;;;;;1.50;50.43;101104.02;1789194;80;21143;-50
2021/03/12 03:44:12;;;;;;;9.88;5.35;;;;;;;1.52;50.49;101106.69;1766342;80;21294;-68
2021/03/12 03:46:43;;;;;;;12.40;6.17;;;;;;;1.54;50.82;101106.33;1793503;80;21169;-51
2021/03/12 03:49:14;;;;;;;11.68;5.83;;;;;;;1.55;50.99;101102.48;1793304;80;21159;-68
2021/03/12 03:51:44;;;;;;;13.60;7.50;;;;;;;1.57;51.11;101096.94;1776120;80;21635;-68
2021/03/12 03:54:15;;;;;;;14.15;6.25;;;;;;;1.64;51.13;101101.92;1787151;80;21561;-51
2021/03/12 03:56:44;;;;;;;9.18;5.28;;;;;;;1.65;51.47;101099.80;1792864;80;21176;-50
2021/03/12 03:59:13;;;;;;;10.23;5.83;;;;;;;1.69;51.52;101091.72;1791176;80;21304;-50
2021/03/12 04:01:41;;;;;;;13.53;6.75;;;;;;;1.78;51.55;101086.43;1787424;80;21434;-69
2021/03/12 04:04:11;;;;;;;12.05;6.60;;;;;;;1.84;51.69;101099.16;1773525;79;21159;-51
2021/03/12 04:06:42;;;;;;;11.95;6.60;;;;;;;1.86;52.04;101092.31;1792802;80;21143;-68
2021/03/12 04:09:13;;;;;;;12.90;6.95;;;;;;;1.95;51.93;101086.55;1785810;79;21119;-51
2021/03/12 04:11:42;;;;;;;13.35;6.10;;;;;;;2.00;52.11;101084.98;1771886;80;21134;-51
2021/03/12 04:14:11;;;;;;;12.18;6.30;;;;;;;2.14;52.24;101080.26;1793708;80;21291;-68
2021/03/12 04:16:40;;;;;;;13.00;6.47;;;;;;;2.26;52.13;101067.69;1793568;80;21142;-67
2021/03/12 04:19:08;;;;;;;12.95;6.10;;;;;;;2.30;52.45;101071.25;1785838;80;21107;-50
2021/03/12 04:21:37;;;;;;;12.18;6.28;;;;;;;2.40;52.28;101069.86;1774639;80;21208;-68
2021/03/12 04:24:06;;;;;;;12.45;6.33;;;;;;;2.47;52.33;101063.59;1774026;80;21186;-67
2021/03/12 04:26:35;;;;;;;13.98;7.08;;;;;;;2.52;52.39;101067.23;1773381;80;21679;-67
2021/03/12 04:29:03;;;;;;;11.22;6.65;;;;;;;2.53;52.72;101073.30;1787341;80;21147;-66
2021/03/12 04:31:32;;;;;;;11.30;6.08;;;;;;;2.52;52.94;101066.33;1783552;80;21192;-67
2021/03/12 04:34:01;;;;;;;12.75;6.20;;;;;;;2.60;52.92;101066.16;1775246;80;21277;-67
2021/03/12 04:36:30;;;;;;;11.40;6.28;;;;;;;2.65;52.98;101063.72;1769155;80;21433;-51
2021/03/12 04:38:58;;;;;;;11.20;5.70;;;;;;;2.77;53.02;101064.08;1770593;79;21127;-67
2021/03/12 04:41:26;;;;;;;14.15;6.35;;;;;;;2.83;53.08;101068.61;1716250;80;21192;-70
2021/03/12 04:43:54;;;;;;;12.63;7.03;;;;;;;2.90;53.06;101060.56;1784413;80;21163;-66
2021/03/12 04:46:22;;;;;;;10.93;5.42;;;;;;;2.95;53.28;101055.95;1774633;81;21143;-66
2021/03/12 04:48:51;;;;;;;15.38;6.75;;;;;;;3.01;53.47;101053.07;1739441;81;21136;-68
2021/03/12 04:51:21;;;;;;;11.05;5.03;;;;;;;3.06;53.48;101040.69;1756397;81;21120;-51
2021/03/12 04:53:50;;;;;;;10.68;5.97;;;;;;;3.07;53.69;101036.35;1756848;81;21163;-66
2021/03/12 04:56:18;;;;;;;12.55;6.22;;;;;;;3.03;54.10;101032.79;1697388;83;21176;-51
2021/03/12 04:58:46;;;;;;;11.53;5.70;;;;;;;3.15;54.03;101029.66;1764120;81;21265;-51
2021/03/12 05:01:14;;;;;;;13.78;6.30;;;;;;;3.28;53.79;101033.48;1748390;81;21173;-65
2021/03/12 05:03:42;;;;;;;16.12;7.05;;;;;;;3.36;53.69;101036.28;1764055;81;21140;-51
2021/03/12 05:06:10;;;;;;;9.53;5.90;;;;;;;3.41;53.63;101038.19;1762999;81;21160;-52
2021/03/12 05:08:40;;;;;;;14.00;6.70;;;;;;;3.46;53.74;101035.70;1762196;80;21179;-66
2021/03/12 05:11:10;;;;;;;17.55;8.23;;;;;;;3.61;53.48;101033.06;1762199;81;21163;-50
2021/03/12 05:13:49;;;;;;;16.23;8.10;;;;;;;3.65;53.55;101034.48;1820511;77;22543;-49
2021/03/12 05:16:18;;;;;;;28.05;8.28;;;;;;;3.69;53.45;101030.25;1772889;80;21150;-49
2021/03/12 05:18:48;;;;;;;23.95;8.65;;;;;;;3.75;53.34;101017.40;1793818;80;21109;-67
2021/03/12 05:21:16;;;;;;;11.97;5.60;;;;;;;3.84;53.25;101024.56;1746166;81;21126;-50
2021/03/12 05:23:44;;;;;;;12.28;5.72;;;;;;;3.98;53.04;101019.25;1727884;83;21124;-50
2021/03/12 05:26:12;;;;;;;12.35;5.17;;;;;;;4.10;52.91;101011.29;1725288;83;21128;-66
2021/03/12 05:28:40;;;;;;;11.50;5.17;;;;;;;4.01;53.01;101002.41;1751945;81;21158;-51
2021/03/12 05:31:08;;;;;;;11.03;5.72;;;;;;;4.23;52.66;101008.14;1741773;82;21134;-66
2021/03/12 05:33:36;;;;;;;11.25;4.78;;;;;;;4.28;52.52;101006.53;1738019;82;21135;-50
2021/03/12 05:36:07;;;;;;;9.60;5.03;;;;;;;4.33;52.35;100987.52;1723779;83;21131;-66
2021/03/12 05:38:34;;;;;;;12.33;5.65;;;;;;;4.31;52.38;100985.76;1757515;81;21146;-50
2021/03/12 05:41:03;;;;;;;9.45;4.45;;;;;;;4.45;51.91;100984.77;1725430;81;21119;-50
2021/03/12 05:43:31;;;;;;;10.40;4.95;;;;;;;4.45;51.93;100985.17;1757396;81;21150;-50
2021/03/12 05:46:00;;;;;;;13.60;7.08;;;;;;;4.57;51.58;100982.84;1758620;81;21585;-50
2021/03/12 05:48:28;;;;;;;9.98;6.03;;;;;;;4.57;51.33;100985.89;1758480;81;21217;-51
2021/03/12 05:51:00;;;;;;;11.80;5.15;;;;;;;4.61;51.49;100999.02;1700902;83;21174;-66
2021/03/12 05:53:29;;;;;;;13.43;4.87;;;;;;;4.79;50.94;101009.41;1700662;83;21325;-68
2021/03/12 05:55:57;;;;;;;12.50;5.17;;;;;;;4.79;50.74;101014.62;1754607;81;21134;-68
2021/03/12 05:58:26;;;;;;;9.68;5.00;;;;;;;5.00;50.49;101001.16;1718434;83;21173;-64
2021/03/12 06:00:58;;;;;;;9.45;4.45;;;;;;;5.01;50.12;100995.09;1699755;83;21151;-66
2021/03/12 06:03:26;;;;;;;9.90;5.12;;;;;;;4.91;50.09;100991.83;1742760;81;21146;-51
2021/03/12 06:05:54;;;;;;;9.25;4.65;;;;;;;5.01;49.67;100988.97;1759691;81;21138;-51
2021/03/12 06:08:23;;;;;;;10.13;4.55;;;;;;;5.05;49.42;100985.17;1728239;83;21585;-65
2021/03/12 06:10:53;;;;;;;14.33;4.65;;;;;;;4.99;49.54;100979.83;1757529;81;21106;-65
2021/03/12 06:13:23;;;;;;;13.90;5.03;;;;;;;5.13;49.24;100980.50;1732476;81;21431;-50
2021/03/12 06:15:53;;;;;;;9.75;5.62;;;;;;;5.19;48.99;100990.66;1705221;84;21143;-50
2021/03/12 06:18:25;;;;;;;12.33;5.05;;;;;;;5.27;48.82;100993.84;1724561;82;21171;-51
2021/03/12 06:21:02;;;;;;;80.05;28.40;;;;;;;5.37;48.49;100990.53;1716147;83;21574;-50
2021/03/12 06:23:39;;;;;;;97.80;38.17;;;;;;;5.30;48.39;100996.08;1717256;83;21158;-65
2021/03/12 06:26:17;;;;;;;13.65;8.25;;;;;;;5.45;48.19;100991.56;1798135;77;28064;-48
2021/03/12 06:29:08;;;;;;;10.98;4.70;;;;;;;5.43;48.06;100997.19;1759149;81;21130;-65
2021/03/12 06:31:54;;;;;;;24.12;11.65;;;;;;;5.49;47.83;101010.80;1759153;80;21152;-52
2021/03/12 06:34:40;;;;;;;14.20;7.85;;;;;;;5.56;47.53;101003.50;1761860;81;21150;-65
2021/03/12 06:37:30;;;;;;;10.53;6.92;;;;;;;5.57;47.49;101007.02;1806698;77;22158;-49
2021/03/12 06:40:21;;;;;;;14.60;5.10;;;;;;;5.68;47.20;101022.47;1728909;81;21166;-49
2021/03/12 06:43:16;;;;;;;10.23;5.45;;;;;;;5.69;46.94;101025.94;1731349;81;21598;-51
2021/03/12 06:45:51;;;;;;;11.40;4.30;;;;;;;5.83;46.35;101027.08;1734184;81;21190;-65
2021/03/12 06:48:24;;;;;;;10.55;4.30;;;;;;;5.89;46.16;101019.34;1699374;84;21162;-65
2021/03/12 06:51:10;;;;;;;8.08;4.53;;;;;;;5.99;45.94;101022.09;1691620;84;21183;-51
2021/03/12 06:53:42;;;;;;;8.33;3.58;;;;;;;6.02;45.88;101028.30;1686288;85;21155;-50
2021/03/12 06:56:14;;;;;;;7.75;3.22;;;;;;;6.05;45.64;101030.08;1701471;84;21407;-51
2021/03/12 06:59:02;;;;;;;22.82;4.50;;;;;;;6.10;45.38;101023.20;1707749;83;21146;-67
2021/03/12 07:01:34;;;;;;;18.32;4.40;;;;;;;5.99;45.23;101036.47;1693258;83;21192;-65
2021/03/12 07:04:13;;;;;;;11.57;4.05;;;;;;;6.18;44.79;101021.59;1704465;83;21171;-66
2021/03/12 07:06:50;;;;;;;7.60;3.40;;;;;;;6.29;44.23;101026.12;1709636;82;21204;-66
2021/03/12 07:09:20;;;;;;;11.80;3.30;;;;;;;6.21;44.12;101034.72;1722918;83;21279;-64
2021/03/12 07:12:00;;;;;;;11.20;3.95;;;;;;;6.22;43.77;101030.34;1819996;77;22614;-50
2021/03/12 07:14:37;;;;;;;9.18;3.70;;;;;;;6.15;43.00;101045.06;1752662;80;21322;-51
2021/03/12 07:17:07;;;;;;;17.40;4.65;;;;;;;6.13;42.82;101032.84;1736659;80;21175;-51
2021/03/12 07:19:35;;;;;;;8.68;3.65;;;;;;;6.28;42.56;101031.76;1713188;83;21597;-49
2021/03/12 07:22:03;;;;;;;6.85;3.40;;;;;;;6.12;42.78;101026.72;1738779;81;21664;-52
2021/03/12 07:24:32;;;;;;;14.00;3.90;;;;;;;6.32;42.89;101041.86;1755650;81;21257;-51
2021/03/12 07:27:00;;;;;;;9.80;3.95;;;;;;;6.34;43.08;101034.47;1731381;81;21171;-64
2021/03/12 07:29:30;;;;;;;9.23;3.35;;;;;;;6.24;43.38;101033.45;1766834;81;21297;-52
2021/03/12 07:32:04;;;;;;;6.25;2.90;;;;;;;6.46;42.93;101031.16;1745998;81;21158;-62
2021/03/12 07:34:34;;;;;;;7.67;3.17;;;;;;;6.59;42.30;101024.41;1732111;81;21146;-51
2021/03/12 07:37:04;;;;;;;5.70;3.35;;;;;;;6.69;42.51;101029.33;1761497;81;21147;-66
2021/03/12 07:39:42;;;;;;;12.15;4.40;;;;;;;6.78;42.38;101022.02;1762006;81;21170;-53
2021/03/12 07:42:11;;;;;;;7.78;3.50;;;;;;;6.95;42.10;101027.06;1735202;81;21613;-52
2021/03/12 07:44:54;;;;;;;12.82;4.00;;;;;;;6.96;41.55;101014.84;1748119;80;21585;-51
2021/03/12 07:47:31;;;;;;;10.88;4.28;;;;;;;6.90;41.56;101024.81;1812197;77;22559;-64
2021/03/12 07:50:00;;;;;;;9.18;3.37;;;;;;;6.86;41.63;101025.62;1748172;81;21131;-63
2021/03/12 07:52:48;;;;;;;10.57;4.27;;;;;;;6.87;41.82;101019.95;1738375;81;21268;-65
2021/03/12 07:55:39;;;;;;;11.20;5.28;;;;;;;6.84;41.70;101018.19;1761750;81;21541;-63
2021/03/12 07:58:10;;;;;;;12.73;4.95;;;;;;;6.89;41.69;101009.08;1752853;81;21156;-64
2021/03/12 08:01:03;;;;;;;8.23;3.58;;;;;;;6.87;41.80;101014.30;1714651;83;21154;-50
2021/03/12 08:03:39;;;;;;;11.03;5.83;;;;;;;6.98;41.66;101004.86;1713206;83;21179;-52
2021/03/12 08:06:23;;;;;;;8.23;3.45;;;;;;;6.97;41.34;100994.36;1693929;84;21660;-51
2021/03/12 08:09:02;;;;;;;8.00;3.25;;;;;;;6.95;41.23;100984.30;1693019;83;21203;-64
2021/03/12 08:11:34;;;;;;;8.55;4.28;;;;;;;7.02;41.32;100977.42;1698641;83;21150;-65
2021/03/12 08:14:18;;;;;;;9.98;3.27;;;;;;;7.05;41.15;100980.94;1696567;84;21170;-52
2021/03/12 08:17:05;;;;;;;8.03;3.42;;;;;;;6.99;41.05;100968.67;1701313;83;21126;-65
2021/03/12 08:19:42;;;;;;;12.70;3.83;;;;;;;6.93;40.83;100979.06;1696147;83;21154;-64
2021/03/12 08:22:33;;;;;;;10.30;3.75;;;;;;;6.88;40.88;100966.34;1713158;82;21613;-51
2021/03/12 08:25:09;;;;;;;22.95;3.70;;;;;;;6.75;41.20;100960.50;1825699;77;22548;-50
2021/03/12 08:27:49;;;;;;;9.78;3.62;;;;;;;6.80;41.00;100962.74;1762197;80;21154;-51
2021/03/12 08:30:29;;;;;;;10.55;3.47;;;;;;;6.80;41.00;100960.13;1743477;81;21119;-52
2021/03/12 08:33:01;;;;;;;7.78;3.27;;;;;;;6.75;41.11;100961.39;1745097;81;21122;-64
2021/03/12 08:35:40;;;;;;;9.65;3.50;;;;;;;6.88;41.10;100956.29;1744868;81;21178;-52
2021/03/12 08:38:33;;;;;;;15.93;6.85;;;;;;;6.80;41.38;100950.56;1744325;81;21187;-66
2021/03/12 08:41:21;;;;;;;10.53;5.20;;;;;;;6.93;41.28;100948.06;1831769;77;22182;-62
2021/03/12 08:43:54;;;;;;;7.33;3.15;;;;;;;7.01;41.10;100950.80;1751077;80;21178;-51
2021/03/12 08:46:34;;;;;;;9.40;2.98;;;;;;;7.02;41.21;100951.25;1820237;77;22186;-63
2021/03/12 08:49:10;;;;;;;13.58;3.58;;;;;;;7.05;41.14;100969.61;1735085;80;21276;-50
2021/03/12 08:51:40;;;;;;;8.55;3.62;;;;;;;6.94;41.24;100954.64;1782239;80;21098;-52
2021/03/12 08:54:27;;;;;;;7.58;3.08;;;;;;;6.95;41.21;100943.73;1761461;81;21154;-63
2021/03/12 09:00:39;;;;;;;12.55;4.83;;;;;;;6.97;41.46;100938.09;1807016;77;22131;-50
2021/03/12 09:03:19;;;;;;;12.68;5.40;;;;;;;6.97;41.33;100935.47;1756480;80;21194;-50
2021/03/12 09:06:12;;;;;;;13.45;4.83;;;;;;;6.89;41.50;100938.00;1830372;77;22183;-51
2021/03/12 09:08:58;;;;;;;9.55;4.70;;;;;;;6.93;41.56;100946.34;1760801;81;21150;-65
2021/03/12 09:11:46;;;;;;;10.00;3.52;;;;;;;6.83;41.97;100937.93;1761803;81;21312;-51
2021/03/12 09:14:15;;;;;;;7.00;3.45;;;;;;;6.81;41.96;100939.64;1761805;81;21211;-51
2021/03/12 09:16:42;;;;;;;9.48;4.03;;;;;;;6.92;41.97;100956.78;1758893;80;21160;-51
2021/03/12 09:19:13;;;;;;;7.12;3.77;;;;;;;6.94;41.86;100939.36;1699274;84;21189;-65
2021/03/12 09:21:56;;;;;;;17.45;10.20;;;;;;;6.89;42.01;100936.70;1707816;83;21169;-53
2021/03/12 09:24:25;;;;;;;13.70;6.87;;;;;;;6.92;42.14;100929.30;1692196;84;21195;-51
2021/03/12 09:26:54;;;;;;;15.85;5.70;;;;;;;6.73;42.21;100919.05;1672771;84;21163;-64
2021/03/12 09:29:31;;;;;;;12.53;4.95;;;;;;;6.79;42.33;100915.20;1690289;84;21308;-52
2021/03/12 09:31:59;;;;;;;17.92;4.72;;;;;;;6.73;42.44;100896.39;1708366;83;21161;-52
2021/03/12 09:34:29;;;;;;;9.75;3.40;;;;;;;6.66;42.74;100898.03;1704228;83;21277;-64
2021/03/12 09:37:08;;;;;;;7.30;3.98;;;;;;;6.67;42.88;100891.08;1815383;77;22205;-65
2021/03/12 09:39:40;;;;;;;8.28;3.10;;;;;;;6.69;42.85;100899.38;1752724;80;21166;-53
2021/03/12 09:42:11;;;;;;;18.20;4.15;;;;;;;6.51;43.19;100891.33;1749820;82;21313;-66
2021/03/12 09:44:47;;;;;;;7.60;2.92;;;;;;;6.59;43.15;100888.80;1721061;83;21291;-53
2021/03/12 09:47:17;;;;;;;5.00;2.92;;;;;;;6.64;43.22;100889.73;1694697;82;21199;-53
2021/03/12 09:49:47;;;;;;;12.82;6.35;;;;;;;6.64;43.37;100892.35;1687870;84;21154;-66
2021/03/12 09:52:17;;;;;;;10.05;5.95;;;;;;;6.59;43.44;100883.16;1714217;81;21180;-55
2021/03/12 09:54:50;;;;;;;10.60;5.05;;;;;;;6.65;43.37;100880.59;1729369;82;21139;-65
2021/03/12 09:57:19;;;;;;;;;;;;;;;6.70;43.40;100873.67;1669451;85;21176;-64
2021/03/12 09:59:52;;;;;;;6.47;3.25;;;;;;;6.53;43.72;100855.17;1661470;85;20143;-52
2021/03/12 10:03:00;;;;;;;11.68;4.00;;;;;;;6.65;43.58;100847.88;1686785;85;21194;-64
2021/03/12 10:06:07;;;;;;;8.20;3.50;;;;;;;6.65;43.89;100823.48;1827223;77;22139;-54
2021/03/12 10:09:02;;;;;;;10.70;4.95;;;;;;;6.58;44.08;100812.09;1764308;81;21117;-66
2021/03/12 10:11:48;;;;;;;18.65;10.25;;;;;;;6.65;44.21;100792.95;1762497;80;21134;-64
2021/03/12 10:14:39;;;;;;;7.97;4.45;;;;;;;6.69;44.32;100803.04;1758757;81;21149;-67
2021/03/12 10:17:16;;;;;;;8.27;4.87;;;;;;;6.87;43.64;100794.50;1745915;81;21146;-53
2021/03/12 10:19:59;;;;;;;18.98;7.72;;;;;;;6.81;43.66;100790.50;1747036;81;21170;-53
2021/03/12 10:22:43;;;;;;;8.85;4.50;;;;;;;6.67;43.95;100787.31;1761774;81;21170;-65
2021/03/12 10:25:29;;;;;;;14.65;4.17;;;;;;;6.91;43.60;100772.73;1731599;82;21205;-65
2021/03/12 10:28:07;;;;;;;6.92;3.27;;;;;;;6.77;44.02;100789.61;1731666;83;21172;-63
2021/03/12 10:30:44;;;;;;;6.20;3.00;;;;;;;6.96;43.87;100742.66;1731626;82;21165;-63
2021/03/12 10:33:21;;;;;;;12.47;3.65;;;;;;;6.89;44.01;100739.54;1732683;81;21256;-53
2021/03/12 10:35:55;;;;;;;6.25;3.40;;;;;;;7.01;43.89;100731.80;1761793;81;21289;-53
2021/03/12 10:38:34;;;;;;;7.92;3.98;;;;;;;7.02;44.05;100716.99;1762056;81;21162;-63
2021/03/12 10:41:18;;;;;;;9.53;3.92;;;;;;;7.11;43.99;100694.78;1761740;80;21232;-52
2021/03/12 10:44:05;;;;;;;7.50;3.98;;;;;;;7.04;44.34;100713.95;1751039;81;21195;-65
2021/03/12 10:46:34;;;;;;;10.78;4.10;;;;;;;6.95;44.53;100697.73;1723497;83;21142;-63
2021/03/12 10:49:03;;;;;;;9.83;3.52;;;;;;;6.95;44.50;100685.53;1735675;81;21186;-51
2021/03/12 10:51:40;;;;;;;10.65;3.80;;;;;;;6.93;44.60;100683.75;1728339;83;21149;-53
2021/03/12 10:54:12;;;;;;;9.38;4.10;;;;;;;6.95;44.67;100669.83;1722445;83;21311;-64
2021/03/12 10:56:47;;;;;;;11.95;3.90;;;;;;;6.93;44.65;100661.51;1689418;84;21182;-53
2021/03/12 10:59:15;;;;;;;8.20;3.75;;;;;;;6.77;44.94;100670.57;1696662;84;21205;-52
2021/03/12 11:01:46;;;;;;;11.48;5.62;;;;;;;6.71;45.25;100658.75;1697202;83;21793;-64
2021/03/12 11:04:16;;;;;;;7.53;4.83;;;;;;;6.58;45.62;100652.54;1695383;84;21190;-65
2021/03/12 11:06:43;;;;;;;7.70;4.00;;;;;;;6.39;46.08;100645.83;1689627;85;21181;-64
2021/03/12 11:09:13;;;;;;;9.53;3.85;;;;;;;6.61;45.80;100644.72;1689430;85;21227;-57
2021/03/12 11:11:43;;;;;;;7.87;4.20;;;;;;;6.70;45.69;100639.98;1696706;83;21158;-53
2021/03/12 11:14:12;;;;;;;7.47;4.30;;;;;;;6.77;45.54;100643.52;1718532;83;21630;-63
2021/03/12 11:16:39;;;;;;;10.60;5.45;;;;;;;6.76;45.65;100646.58;1717728;82;21867;-65
2021/03/12 11:19:08;;;;;;;9.78;4.12;;;;;;;6.84;45.51;100650.55;1713118;83;21178;-52
2021/03/12 11:21:36;;;;;;;12.03;4.85;;;;;;;6.70;45.70;100651.76;1712998;83;21335;-53
2021/03/12 11:24:06;;;;;;;9.03;4.37;;;;;;;6.84;45.55;100652.72;1717746;83;21356;-64
2021/03/12 11:26:34;;;;;;;6.92;3.33;;;;;;;6.68;46.03;100644.33;1717991;83;21307;-64
2021/03/12 11:29:03;;;;;;;10.50;3.90;;;;;;;6.87;45.77;100650.99;1717518;83;21624;-65
2021/03/12 11:31:31;;;;;;;16.45;3.80;;;;;;;6.87;46.07;100653.61;1697384;83;21174;-52
2021/03/12 11:33:59;;;;;;;25.45;12.13;;;;;;;6.91;48.78;100655.39;1694933;83;21135;-52
2021/03/12 11:36:27;;;;;;;8.18;4.45;;;;;;;6.78;49.85;100660.97;1688924;84;21198;-64
2021/03/12 11:38:55;;;;;;;8.58;4.78;;;;;;;6.47;54.04;100668.56;1689347;84;21139;-63
2021/03/12 11:41:23;;;;;;;8.70;3.83;;;;;;;6.38;53.75;100673.28;1689102;85;21184;-63
2021/03/12 11:43:51;;;;;;;8.80;3.75;;;;;;;6.16;55.82;100681.34;1688918;85;21597;-52
2021/03/12 11:46:19;;;;;;;10.43;4.15;;;;;;;6.09;57.63;100684.30;1699710;83;21123;-53
2021/03/12 11:48:48;;;;;;;10.10;4.47;;;;;;;5.97;58.23;100690.23;1696684;84;21164;-61
2021/03/12 11:51:17;;;;;;;10.63;4.78;;;;;;;5.81;58.45;100700.48;1699528;84;21170;-61
2021/03/12 11:53:45;;;;;;;10.43;4.60;;;;;;;5.68;60.01;100699.02;1719810;83;21146;-54
2021/03/12 11:56:13;;;;;;;9.38;4.20;;;;;;;5.32;61.52;100702.02;1750537;81;21666;-61
2021/03/12 11:58:44;;;;;;;10.85;4.42;;;;;;;5.19;63.33;100708.80;1755244;81;21131;-54
2021/03/12 12:01:11;;;;;;;10.03;4.45;;;;;;;5.07;64.08;100707.30;1752483;81;21356;-61
2021/03/12 12:03:39;;;;;;;9.38;4.15;;;;;;;5.08;64.33;100706.89;1755339;81;21102;-61
2021/03/12 12:06:10;;;;;;;8.08;4.33;;;;;;;4.97;65.08;100700.17;1697695;83;21134;-55
2021/03/12 12:08:39;;;;;;;9.78;4.97;;;;;;;4.94;64.52;100701.02;1729753;81;21151;-62
2021/03/12 12:11:07;;;;;;;9.95;4.95;;;;;;;4.92;64.52;100701.42;1747677;80;21091;-62
2021/03/12 12:13:35;;;;;;;10.30;6.22;;;;;;;4.93;64.68;100697.06;1748325;81;21192;-63